Swansea, SC (29160)

5:02 PM EDT on March 31, 2015 (GMT -0400)
Gaston SC | | Change Station
CLOSE
Current Station
Personal Weather Station
Location: Gaston, SC
Elevation: 436 ft
Nearby Weather Stations
Active Advisory: Special Statement

Elev 436 ft 33.80 °N, 81.12 °W | Updated 15 minutes ago

Clear
Clear
82.4 °F
Feels Like 80 °F
N
9.9
Wind Variable Wind from SSE

Today
High -- | Low -- °F
--% Chance of Precip.
Yesterday
High -- | Low -- °F
Precip. -- in
7:13 AM 7:44 PM
Waxing Gibbous, 89% visible
Pressure 29.85 in
Visibility 10.0 miles
Clouds Scattered Clouds 8000 ft
Heat Index 80 °F
Dew Point 44 °F
Humidity 26%
Rainfall 0.00 in
Snow Depth Not available.
UV 3 out of 12
Pollen 10.50 out of 12
Air Quality Not available.
Flu Activity Not available.
METAR KCAE 312056Z 25017G26KT 10SM SCT080 27/04 A2986 RMK AO2 PK WND 26027/2017 SLP107 T02670039 56037

More Conditions Fewer Conditions

Pressure 29.85 in
Visibility 10.0 miles
Clouds Scattered Clouds 8000 ft
Heat Index 80 °F
Dew Point 44 °F
Humidity 26%
Rainfall 0.00 in
Snow Depth Not available.
UV 3 out of 12
Pollen 10.50 out of 12
Air Quality Not available.
Flu Activity Not available.
METAR KCAE 312056Z 25017G26KT 10SM SCT080 27/04 A2986 RMK AO2 PK WND 26027/2017 SLP107 T02670039 56037

More Conditions Fewer Conditions

10-Day Weather Forecast

Almanac

Astronomy

Mar. 31, 2015 Rise Set
Actual Time
Civil Twilight
Nautical Twilight
Astronomical Twilight
Moon
Length of Visible Light
Length of Day
Tomorrow will be .
, % of the Moon is Illuminated

Today's Extremes

State Highs State Lows

Community

WunderPhotos

Upload Photos

1,809,834 photos uploaded!

WunderBlogs® & News

Nearby

Air Quality

  Air Quality AQ Index Pollutant
Not available.

Snow Depth

Station Depth Elevation

Earthquake Activity

City Distance Mag. Time & Date
Minimum magnitude displayed is 2.5.

Coastal Water Temperatures

Place Temperature

Stations

Nearby Weather Stations

Station Location Temp. Windchill Dew Point Humidity Wind Precip. Elev Updated Type
                   
Special Statement
Statement as of 3:41 PM EDT on March 31, 2015

... Increased fire danger this afternoon...

Temperatures in the mid 70s to lower 80s combined with dry air has
produced relative humidities around 20 percent this afternoon.
In addition... southwest winds have increased to 15 to 20 mph with
gusts up to 30 mph. Fine fuels will be slowly drying and fuel
moisture may reach critical values through early this evening.
The combination of dry air and fuels will heighten fire danger
through 7 PM this evening.